Fairbanks, AK

12:01 PM AKDT on September 26, 2017 (GMT -0800)
Homestead | | Change Station

Elev 446 ft 64.86 °N, 147.78 °W | Updated 20 seconds ago

Overcast
Overcast
45.7 °F
Feels Like 46 °F
N
2.0
Wind Variable Wind from NNW

Today
High -- | Low -- °F
--% Chance of Precip.
Yesterday
High -- | Low -- °F
Precip. -- in
Pressure 29.91 in
Visibility 10.0 miles
Clouds Scattered Clouds 3000 ft
Overcast 8500 ft
Windchill 46 °F
Dew Point 42 °F
Humidity 86%
Rainfall 0.04 in
Snow Depth Not available.
7:46 AM 7:35 PM
Waxing Crescent, 38% visible
METAR PAFB 261958Z 06006KT 10SM SCT030 OVC085 07/05 A2989 RMK AO2A SLP127 T00730047
Pressure 29.91 in
Visibility 10.0 miles
Clouds Scattered Clouds 3000 ft
Overcast 8500 ft
Windchill 46 °F
Dew Point 42 °F
Humidity 86%
Rainfall 0.04 in
Snow Depth Not available.
7:46 AM 7:35 PM
Waxing Crescent, 38% visible
METAR PAFB 261958Z 06006KT 10SM SCT030 OVC085 07/05 A2989 RMK AO2A SLP127 T00730047

Get Severe Weather Alerts

Thanks for signing up!

Be on the lookout for a verification email in your inbox.

You'll start receiving the daily forecast at 6 AM.

×

10-Day Weather Forecast

Almanac

Astronomy

Sep. 26, 2017 Rise Set
Actual Time
Civil Twilight
Nautical Twilight
Astronomical Twilight
Moon
Length of Visible Light
Length of Day
Tomorrow will be .
, % of the Moon is Illuminated

Today's Extremes

State Highs State Lows

Community

WunderPhotos

Category 6

Welcome to Category 6. This is the collective home for Weather Underground's featured writeups by Dr. Jeff Masters (right), Bob Henson (left), Chris Burt, and other regular contributors.

Nearby

Air Quality

  Air Quality AQ Index Pollutant
Not available.

Snow Depth

Station Depth Elevation

Earthquake Activity

City Distance Mag. Time & Date
Minimum magnitude displayed is 2.5.

Coastal Water Temperatures

Place Temperature

Stations

Nearby Weather Stations

Station Location Temp. Windchill Dew Point Humidity Wind Precip. Elev Updated Type
                   

Watches & Warnings

There are currently no watches in effect.